createdAt,value
2022-11-26T00:00:54.106Z,7.80
2022-11-26T00:01:55.771Z,7.80
2022-11-26T00:02:57.972Z,7.80
2022-11-26T00:04:03.066Z,7.80
2022-11-26T00:05:05.035Z,7.80
2022-11-26T00:06:28.742Z,7.80
2022-11-26T00:07:32.955Z,7.80
2022-11-26T00:08:35.733Z,7.80
2022-11-26T00:09:37.856Z,7.80
2022-11-26T00:10:39.550Z,7.80
2022-11-26T00:11:41.604Z,7.80
2022-11-26T00:12:43.325Z,7.70
2022-11-26T00:13:45.142Z,7.80
2022-11-26T00:14:47.268Z,7.70
2022-11-26T00:15:49.789Z,7.70
2022-11-26T00:16:51.579Z,7.80
2022-11-26T00:17:54.189Z,7.80
2022-11-26T00:18:55.879Z,7.70
2022-11-26T00:19:57.450Z,7.70
2022-11-26T00:21:00.912Z,7.70
2022-11-26T00:22:02.585Z,7.70
2022-11-26T00:23:04.664Z,7.70
2022-11-26T00:24:26.101Z,7.70
2022-11-26T00:25:43.148Z,7.60
2022-11-26T00:26:44.711Z,7.50
2022-11-26T00:27:46.732Z,7.50
2022-11-26T00:29:01.214Z,7.50
2022-11-26T00:30:13.729Z,7.50
2022-11-26T00:31:16.790Z,7.50
2022-11-26T00:32:21.207Z,7.60
2022-11-26T00:33:24.052Z,7.60
2022-11-26T00:34:25.637Z,7.60
2022-11-26T00:35:27.266Z,7.60
2022-11-26T00:36:31.850Z,7.60
2022-11-26T00:37:57.347Z,7.60
2022-11-26T00:39:01.220Z,7.60
2022-11-26T00:40:02.883Z,7.60
2022-11-26T00:41:04.745Z,7.60
2022-11-26T00:42:06.306Z,7.60
2022-11-26T00:43:12.146Z,7.60
2022-11-26T00:44:22.333Z,7.60
2022-11-26T00:45:27.562Z,7.70
2022-11-26T00:46:29.418Z,7.60
2022-11-26T00:47:31.022Z,7.60
2022-11-26T00:48:32.615Z,7.60
2022-11-26T00:49:34.222Z,7.60
2022-11-26T00:50:41.288Z,7.60
2022-11-26T00:51:43.495Z,7.60
2022-11-26T00:52:47.397Z,7.70
2022-11-26T00:53:50.572Z,7.70
2022-11-26T00:54:52.190Z,7.70
2022-11-26T00:55:53.835Z,7.80
2022-11-26T00:56:56.186Z,7.80
2022-11-26T00:57:58.433Z,7.80
2022-11-26T00:59:00.032Z,7.80
2022-11-26T01:00:01.927Z,7.80
2022-11-26T01:01:03.593Z,7.70
2022-11-26T01:02:05.265Z,7.80
2022-11-26T01:03:06.992Z,7.70
2022-11-26T01:04:08.678Z,7.70
2022-11-26T01:05:10.444Z,7.80
2022-11-26T01:06:20.170Z,7.80
2022-11-26T01:07:21.885Z,7.80
2022-11-26T01:08:35.972Z,7.80
2022-11-26T01:09:38.548Z,7.80
2022-11-26T01:10:40.133Z,7.90
2022-11-26T01:11:41.714Z,7.90
2022-11-26T01:12:43.395Z,7.90
2022-11-26T01:13:46.895Z,7.90
2022-11-26T01:14:48.503Z,7.90
2022-11-26T01:15:50.183Z,7.90
2022-11-26T01:16:54.909Z,7.90
2022-11-26T01:17:56.727Z,7.90
2022-11-26T01:19:00.021Z,8.00
2022-11-26T01:20:01.713Z,8.00
2022-11-26T01:21:03.389Z,8.00
2022-11-26T01:22:04.988Z,8.00
2022-11-26T01:23:09.261Z,7.90
2022-11-26T01:24:10.917Z,7.90
2022-11-26T01:25:12.506Z,7.80
2022-11-26T01:26:28.614Z,7.80
2022-11-26T01:27:30.269Z,7.80
2022-11-26T01:28:31.914Z,7.80
2022-11-26T01:29:33.503Z,7.80
2022-11-26T01:30:35.224Z,7.80
2022-11-26T01:31:36.866Z,7.80
2022-11-26T01:32:38.493Z,7.80
2022-11-26T01:33:40.195Z,7.70
2022-11-26T01:34:41.811Z,7.70
2022-11-26T01:35:43.578Z,7.70
2022-11-26T01:36:45.182Z,7.70
2022-11-26T01:37:48.244Z,7.60
2022-11-26T01:38:52.532Z,7.60
2022-11-26T01:39:54.106Z,7.50
2022-11-26T01:41:16.524Z,7.60
2022-11-26T01:42:24.595Z,7.50
2022-11-26T01:43:33.161Z,7.50
2022-11-26T01:44:37.132Z,7.50
2022-11-26T01:45:39.130Z,7.50
2022-11-26T01:46:40.919Z,7.40
2022-11-26T01:47:42.874Z,7.40
2022-11-26T01:48:45.700Z,7.40
2022-11-26T01:50:24.520Z,7.40
2022-11-26T01:51:27.716Z,7.40
2022-11-26T01:52:29.299Z,7.40
2022-11-26T01:53:43.418Z,7.40
2022-11-26T01:54:45.688Z,7.40
2022-11-26T01:55:54.233Z,7.40
2022-11-26T01:56:58.790Z,7.40
2022-11-26T01:58:00.586Z,7.40
2022-11-26T01:59:10.726Z,7.30
2022-11-26T02:00:13.045Z,7.30
2022-11-26T02:01:14.989Z,7.30
2022-11-26T02:02:17.755Z,7.30
2022-11-26T02:03:20.008Z,7.30
2022-11-26T02:04:24.426Z,7.30
2022-11-26T02:05:31.504Z,7.30
2022-11-26T02:06:34.545Z,7.30
2022-11-26T02:07:36.761Z,7.30
2022-11-26T02:08:38.695Z,7.30
2022-11-26T02:09:40.939Z,7.30
2022-11-26T02:10:42.654Z,7.30
2022-11-26T02:11:45.050Z,7.30
2022-11-26T02:12:47.497Z,7.30
2022-11-26T02:13:54.154Z,7.30
2022-11-26T02:14:55.885Z,7.30
2022-11-26T02:16:07.835Z,7.20
2022-11-26T02:17:12.384Z,7.20
2022-11-26T02:18:14.819Z,7.20
2022-11-26T02:19:45.337Z,7.20
2022-11-26T02:20:59.991Z,7.20
2022-11-26T02:22:26.369Z,7.20
2022-11-26T02:23:46.954Z,7.20
2022-11-26T02:25:11.210Z,7.20
2022-11-26T02:26:37.343Z,7.20
2022-11-26T02:27:49.920Z,7.30
2022-11-26T02:29:00.104Z,7.30
2022-11-26T02:30:10.570Z,7.20
2022-11-26T02:31:17.338Z,7.20
2022-11-26T02:32:26.091Z,7.20
2022-11-26T02:33:53.848Z,7.20
2022-11-26T02:35:12.600Z,7.30
2022-11-26T02:36:31.921Z,7.20
2022-11-26T02:37:46.768Z,7.20
2022-11-26T02:38:48.475Z,7.20
2022-11-26T02:39:51.394Z,7.20
2022-11-26T02:40:53.231Z,7.10
2022-11-26T02:41:57.977Z,7.10
2022-11-26T02:42:59.662Z,7.10
2022-11-26T02:44:01.413Z,7.00
2022-11-26T02:45:11.412Z,7.00
2022-11-26T02:46:18.650Z,7.10
2022-11-26T02:47:21.682Z,7.10
2022-11-26T02:48:27.556Z,7.10
2022-11-26T02:49:30.482Z,7.20
2022-11-26T02:50:54.107Z,7.10
2022-11-26T02:51:59.645Z,7.00
2022-11-26T02:53:02.452Z,7.00
2022-11-26T02:54:06.458Z,7.00
2022-11-26T02:55:10.450Z,7.00
2022-11-26T02:56:17.246Z,7.00
2022-11-26T02:57:21.334Z,7.00
2022-11-26T02:58:22.950Z,7.00
2022-11-26T02:59:24.793Z,7.00
2022-11-26T03:00:26.591Z,7.00
2022-11-26T03:01:37.156Z,7.00
2022-11-26T03:02:46.389Z,7.00
2022-11-26T03:03:50.743Z,7.00
2022-11-26T03:04:57.997Z,7.00
2022-11-26T03:06:05.592Z,7.00
2022-11-26T03:07:09.601Z,6.90
2022-11-26T03:08:11.452Z,7.00
2022-11-26T03:09:15.581Z,7.00
2022-11-26T03:10:20.200Z,7.00
2022-11-26T03:11:22.112Z,7.00
2022-11-26T03:12:24.515Z,6.90
2022-11-26T03:13:26.269Z,7.00
2022-11-26T03:14:27.873Z,6.90
2022-11-26T03:15:29.469Z,6.90
2022-11-26T03:16:31.110Z,6.90
2022-11-26T03:17:32.822Z,6.90
2022-11-26T03:18:34.477Z,6.90
2022-11-26T03:19:36.061Z,6.90
2022-11-26T03:20:37.642Z,6.90
2022-11-26T03:21:39.216Z,6.90
2022-11-26T03:22:41.070Z,6.90
2022-11-26T03:23:42.681Z,6.90
2022-11-26T03:24:44.346Z,6.90
2022-11-26T03:25:46.030Z,6.90
2022-11-26T03:26:47.587Z,6.90
2022-11-26T03:27:49.152Z,6.90
2022-11-26T03:28:50.726Z,6.90
2022-11-26T03:29:52.382Z,6.90
2022-11-26T03:30:53.989Z,6.90
2022-11-26T03:31:56.233Z,6.90
2022-11-26T03:32:58.048Z,6.90
2022-11-26T03:33:59.634Z,6.90
2022-11-26T03:35:01.294Z,6.90
2022-11-26T03:36:03.206Z,6.80
2022-11-26T03:37:04.777Z,6.80
2022-11-26T03:38:06.368Z,6.90
2022-11-26T03:39:07.946Z,6.90
2022-11-26T03:40:09.998Z,6.90
2022-11-26T03:41:11.755Z,6.90
2022-11-26T03:42:13.366Z,6.90
2022-11-26T03:43:14.962Z,6.80
2022-11-26T03:44:16.533Z,6.80
2022-11-26T03:45:18.209Z,6.80
2022-11-26T03:46:20.173Z,6.80
2022-11-26T03:47:21.933Z,6.80
2022-11-26T03:48:23.582Z,6.80
2022-11-26T03:49:25.212Z,6.80
2022-11-26T03:50:26.827Z,6.70
2022-11-26T03:51:28.421Z,6.70
2022-11-26T03:52:29.980Z,6.70
2022-11-26T03:53:31.832Z,6.70
2022-11-26T03:54:33.404Z,6.60
2022-11-26T03:55:35.234Z,6.60
2022-11-26T03:56:36.895Z,6.60
2022-11-26T03:57:38.793Z,6.60
2022-11-26T03:58:40.656Z,6.60
2022-11-26T03:59:42.272Z,6.50
2022-11-26T04:00:43.953Z,6.50
2022-11-26T04:01:45.797Z,6.40
2022-11-26T04:02:47.553Z,6.40
2022-11-26T04:03:49.178Z,6.40
2022-11-26T04:04:51.106Z,6.40
2022-11-26T04:05:52.674Z,6.30
2022-11-26T04:06:54.260Z,6.40
2022-11-26T04:07:55.910Z,6.40
2022-11-26T04:08:57.559Z,6.30
2022-11-26T04:09:59.175Z,6.30
2022-11-26T04:11:00.788Z,6.30
2022-11-26T04:12:02.449Z,6.30
2022-11-26T04:13:04.085Z,6.30
2022-11-26T04:14:05.692Z,6.30
2022-11-26T04:15:07.941Z,6.30
2022-11-26T04:16:09.982Z,6.30
2022-11-26T04:17:12.062Z,6.30
2022-11-26T04:18:13.779Z,6.30
2022-11-26T04:19:15.356Z,6.30
2022-11-26T04:20:17.108Z,6.30
2022-11-26T04:21:18.719Z,6.20
2022-11-26T04:22:20.341Z,6.20
2022-11-26T04:23:22.263Z,6.30
2022-11-26T04:24:24.091Z,6.30
2022-11-26T04:25:26.217Z,6.20
2022-11-26T04:26:28.057Z,6.30
2022-11-26T04:27:29.687Z,6.30
2022-11-26T04:28:31.328Z,6.30
2022-11-26T04:29:32.924Z,6.20
2022-11-26T04:30:34.516Z,6.20
2022-11-26T04:31:36.478Z,6.20
2022-11-26T04:32:39.838Z,6.10
2022-11-26T04:33:42.279Z,6.20
2022-11-26T04:34:43.877Z,6.20
2022-11-26T04:35:45.519Z,6.20
2022-11-26T04:36:47.131Z,6.10
2022-11-26T04:37:48.826Z,6.10
2022-11-26T04:38:50.598Z,6.10
2022-11-26T04:39:52.246Z,6.10
2022-11-26T04:40:53.948Z,6.10
2022-11-26T04:41:55.511Z,6.10
2022-11-26T04:42:57.085Z,6.20
2022-11-26T04:43:58.688Z,6.20
2022-11-26T04:45:00.288Z,6.10
2022-11-26T04:46:02.107Z,6.10
2022-11-26T04:47:03.781Z,6.10
2022-11-26T04:48:06.122Z,6.10
2022-11-26T04:49:07.728Z,6.10
2022-11-26T04:50:10.238Z,6.20
2022-11-26T04:51:11.808Z,6.10
2022-11-26T04:52:13.487Z,6.00
2022-11-26T04:53:15.518Z,6.00
2022-11-26T04:54:17.135Z,6.00
2022-11-26T04:55:18.975Z,6.00
2022-11-26T04:56:20.575Z,6.10
2022-11-26T04:57:22.197Z,5.90
2022-11-26T04:58:28.561Z,5.90
2022-11-26T04:59:30.189Z,5.90
2022-11-26T05:00:31.823Z,5.90
2022-11-26T05:01:33.524Z,5.90
2022-11-26T05:02:35.455Z,5.90
2022-11-26T05:03:37.119Z,5.90
2022-11-26T05:04:38.958Z,5.80
2022-11-26T05:05:40.955Z,5.90
2022-11-26T05:06:42.547Z,5.90
2022-11-26T05:07:44.213Z,5.90
2022-11-26T05:08:45.894Z,5.90
2022-11-26T05:09:47.550Z,5.80
2022-11-26T05:10:54.208Z,5.80
2022-11-26T05:11:55.791Z,5.70
2022-11-26T05:12:57.356Z,5.50
2022-11-26T05:13:58.957Z,5.50
2022-11-26T05:15:00.545Z,5.40
2022-11-26T05:16:02.132Z,5.40
2022-11-26T05:17:03.757Z,5.40
2022-11-26T05:18:05.522Z,5.40
2022-11-26T05:19:07.105Z,5.30
2022-11-26T05:20:09.299Z,5.20
2022-11-26T05:21:10.911Z,5.20
2022-11-26T05:22:12.575Z,5.20
2022-11-26T05:23:14.197Z,5.10
2022-11-26T05:24:15.769Z,5.10
2022-11-26T05:25:17.464Z,5.10
2022-11-26T05:26:19.249Z,5.10
2022-11-26T05:27:20.836Z,5.10
2022-11-26T05:28:22.389Z,5.10
2022-11-26T05:29:24.491Z,5.10
2022-11-26T05:30:26.098Z,5.10
2022-11-26T05:31:29.150Z,5.10
2022-11-26T05:32:30.784Z,5.10
2022-11-26T05:33:32.407Z,5.00
2022-11-26T05:34:34.031Z,5.10
2022-11-26T05:35:37.197Z,5.00
2022-11-26T05:36:38.817Z,5.00
2022-11-26T05:37:40.419Z,5.00
2022-11-26T05:38:42.015Z,5.00
2022-11-26T05:39:43.625Z,5.00
2022-11-26T05:40:45.215Z,5.00
2022-11-26T05:41:46.836Z,5.00
2022-11-26T05:42:48.428Z,5.00
2022-11-26T05:43:50.054Z,5.10
2022-11-26T05:44:51.641Z,5.10
2022-11-26T05:45:53.306Z,5.10
2022-11-26T05:46:54.980Z,5.10
2022-11-26T05:47:56.547Z,5.10
2022-11-26T05:48:58.111Z,5.00
2022-11-26T05:49:59.708Z,5.00
2022-11-26T05:51:02.301Z,5.00
2022-11-26T05:52:04.220Z,5.00
2022-11-26T05:53:05.964Z,5.00
2022-11-26T05:54:07.680Z,5.10
2022-11-26T05:55:09.924Z,5.10
2022-11-26T05:56:11.528Z,5.10
2022-11-26T05:57:13.245Z,5.10
2022-11-26T05:58:14.833Z,5.20
2022-11-26T05:59:16.477Z,5.20
2022-11-26T06:00:18.368Z,5.20
2022-11-26T06:01:19.961Z,5.20
2022-11-26T06:02:21.832Z,5.20
2022-11-26T06:03:23.560Z,5.20
2022-11-26T06:04:25.283Z,5.20
2022-11-26T06:05:26.900Z,5.30
2022-11-26T06:06:28.534Z,5.30
2022-11-26T06:07:30.254Z,5.30
2022-11-26T06:08:31.906Z,5.30
2022-11-26T06:09:33.680Z,5.30
2022-11-26T06:10:35.384Z,5.30
2022-11-26T06:11:36.997Z,5.30
2022-11-26T06:12:38.776Z,5.30
2022-11-26T06:13:40.374Z,5.30
2022-11-26T06:14:43.614Z,5.30
2022-11-26T06:15:45.665Z,5.30
2022-11-26T06:16:47.532Z,5.30
2022-11-26T06:17:49.225Z,5.30
2022-11-26T06:18:50.793Z,5.30
2022-11-26T06:19:52.457Z,5.30
2022-11-26T06:20:54.399Z,5.40
2022-11-26T06:21:56.016Z,5.40
2022-11-26T06:22:57.680Z,5.40
2022-11-26T06:23:59.959Z,5.40
2022-11-26T06:25:01.652Z,5.40
2022-11-26T06:26:10.204Z,5.40
2022-11-26T06:27:11.855Z,5.40
2022-11-26T06:28:13.692Z,5.40
2022-11-26T06:29:15.544Z,5.40
2022-11-26T06:30:17.158Z,5.40
2022-11-26T06:31:18.810Z,5.40
2022-11-26T06:32:20.425Z,5.40
2022-11-26T06:33:22.127Z,5.40
2022-11-26T06:34:23.804Z,5.40
2022-11-26T06:35:25.431Z,5.40
2022-11-26T06:36:27.125Z,5.50
2022-11-26T06:37:28.785Z,5.50
2022-11-26T06:38:30.521Z,5.50
2022-11-26T06:39:32.059Z,5.60
2022-11-26T06:40:33.646Z,5.60
2022-11-26T06:41:35.272Z,5.70
2022-11-26T06:42:36.883Z,5.60
2022-11-26T06:43:38.540Z,5.60
2022-11-26T06:44:40.462Z,5.70
2022-11-26T06:45:42.268Z,5.70
2022-11-26T06:46:43.867Z,5.70
2022-11-26T06:47:49.903Z,5.80
2022-11-26T06:48:51.542Z,5.80
2022-11-26T06:49:53.508Z,5.80
2022-11-26T06:50:55.137Z,5.80
2022-11-26T06:51:56.736Z,5.80
2022-11-26T06:52:58.424Z,5.80
2022-11-26T06:54:00.087Z,5.90
2022-11-26T06:55:01.657Z,5.90
2022-11-26T06:56:04.881Z,6.00
2022-11-26T06:57:06.609Z,6.00
2022-11-26T06:58:08.258Z,6.10
2022-11-26T06:59:09.905Z,6.10
2022-11-26T07:00:12.509Z,6.10
2022-11-26T07:01:18.482Z,6.10
2022-11-26T07:02:20.215Z,6.10
2022-11-26T07:03:24.840Z,6.10
2022-11-26T07:04:27.943Z,6.20
2022-11-26T07:05:29.559Z,6.20
2022-11-26T07:06:32.973Z,6.20
2022-11-26T07:07:37.898Z,6.20
2022-11-26T07:08:39.495Z,6.20
2022-11-26T07:09:41.482Z,6.20
2022-11-26T07:10:48.685Z,6.20
2022-11-26T07:11:50.742Z,6.20
2022-11-26T07:12:52.370Z,6.20
2022-11-26T07:13:54.377Z,6.10
2022-11-26T07:14:56.056Z,6.10
2022-11-26T07:16:02.871Z,6.10
2022-11-26T07:17:04.671Z,6.10
2022-11-26T07:18:06.272Z,6.10
2022-11-26T07:19:10.983Z,6.10
2022-11-26T07:20:13.678Z,6.10
2022-11-26T07:21:15.766Z,6.20
2022-11-26T07:22:17.556Z,6.20
2022-11-26T07:23:19.316Z,6.20
2022-11-26T07:24:20.932Z,6.20
2022-11-26T07:25:22.645Z,6.20
2022-11-26T07:26:24.313Z,6.30
2022-11-26T07:27:25.912Z,6.30
2022-11-26T07:28:28.457Z,6.30
2022-11-26T07:29:30.337Z,6.40
2022-11-26T07:30:32.119Z,6.40
2022-11-26T07:31:33.858Z,6.40
2022-11-26T07:32:35.569Z,6.30
2022-11-26T07:33:37.605Z,6.30
2022-11-26T07:34:39.521Z,6.30
2022-11-26T07:35:41.234Z,6.20
2022-11-26T07:36:43.481Z,6.20
2022-11-26T07:37:45.176Z,6.20
2022-11-26T07:38:47.521Z,6.20
2022-11-26T07:39:49.532Z,6.20
2022-11-26T07:40:51.151Z,6.20
2022-11-26T07:41:52.713Z,6.20
2022-11-26T07:42:54.279Z,6.20
2022-11-26T07:43:55.972Z,6.20
2022-11-26T07:44:57.564Z,6.20
2022-11-26T07:46:02.489Z,6.20
2022-11-26T07:47:04.309Z,6.20
2022-11-26T07:48:06.192Z,6.20
2022-11-26T07:49:08.347Z,6.20
2022-11-26T07:50:10.035Z,6.20
2022-11-26T07:51:21.432Z,6.20
2022-11-26T07:52:23.025Z,6.20
2022-11-26T07:53:24.820Z,6.20
2022-11-26T07:54:26.397Z,6.20
2022-11-26T07:55:28.056Z,6.20
2022-11-26T07:56:29.908Z,6.20
2022-11-26T07:57:32.209Z,6.20
2022-11-26T07:58:33.905Z,6.20
2022-11-26T07:59:35.487Z,6.20
2022-11-26T08:00:37.096Z,6.10
2022-11-26T08:01:38.788Z,6.10
2022-11-26T08:02:40.456Z,6.10
2022-11-26T08:03:44.296Z,6.10
2022-11-26T08:04:45.925Z,6.20
2022-11-26T08:05:47.513Z,6.20
2022-11-26T08:06:49.161Z,6.30
2022-11-26T08:07:50.879Z,6.30
2022-11-26T08:08:53.117Z,6.30
2022-11-26T08:09:54.757Z,6.40
2022-11-26T08:10:56.310Z,6.30
2022-11-26T08:11:57.918Z,6.30
2022-11-26T08:12:59.536Z,6.30
2022-11-26T08:14:04.170Z,6.30
2022-11-26T08:15:06.216Z,6.30
2022-11-26T08:16:07.905Z,6.30
2022-11-26T08:17:09.516Z,6.40
2022-11-26T08:18:11.819Z,6.40
2022-11-26T08:19:15.316Z,6.50
2022-11-26T08:20:17.011Z,6.50
2022-11-26T08:21:18.560Z,6.50
2022-11-26T08:22:20.185Z,6.50
2022-11-26T08:23:21.761Z,6.50
2022-11-26T08:24:23.759Z,6.50
2022-11-26T08:25:25.357Z,6.50
2022-11-26T08:26:35.844Z,6.50
2022-11-26T08:27:40.185Z,6.50
2022-11-26T08:28:45.850Z,6.50
2022-11-26T08:29:47.421Z,6.50
2022-11-26T08:30:49.183Z,6.50
2022-11-26T08:31:51.044Z,6.40
2022-11-26T08:32:52.929Z,6.50
2022-11-26T08:34:01.874Z,6.50
2022-11-26T08:35:03.793Z,6.50
2022-11-26T08:36:08.754Z,6.50
2022-11-26T08:37:10.464Z,6.50
2022-11-26T08:38:12.026Z,6.50
2022-11-26T08:39:17.221Z,6.50
2022-11-26T08:40:18.970Z,6.60
2022-11-26T08:41:20.783Z,6.60
2022-11-26T08:42:22.385Z,6.70
2022-11-26T08:43:34.646Z,6.70
2022-11-26T08:44:45.584Z,6.80
2022-11-26T08:45:58.903Z,6.80
2022-11-26T08:47:00.543Z,6.80
2022-11-26T08:48:02.128Z,6.90
2022-11-26T08:49:04.457Z,6.90
2022-11-26T08:50:06.672Z,6.90
2022-11-26T08:51:11.647Z,6.90
2022-11-26T08:52:13.201Z,7.00
2022-11-26T08:53:15.427Z,7.00
2022-11-26T08:54:17.203Z,7.00
2022-11-26T08:55:23.724Z,7.00
2022-11-26T08:56:25.833Z,7.00
2022-11-26T08:57:27.414Z,7.10
2022-11-26T08:58:29.473Z,7.10
2022-11-26T08:59:31.220Z,7.10
2022-11-26T09:00:32.864Z,7.10
2022-11-26T09:01:34.627Z,7.20
2022-11-26T09:02:36.327Z,7.20
2022-11-26T09:03:41.086Z,7.10
2022-11-26T09:04:42.940Z,7.20
2022-11-26T09:05:45.054Z,7.20
2022-11-26T09:06:46.687Z,7.20
2022-11-26T09:07:49.152Z,7.20
2022-11-26T09:09:09.679Z,7.20
2022-11-26T09:10:11.753Z,7.20
2022-11-26T09:11:13.336Z,7.20
2022-11-26T09:12:14.964Z,7.20
2022-11-26T09:13:20.907Z,7.20
2022-11-26T09:14:27.902Z,7.20
2022-11-26T09:15:29.843Z,7.20
2022-11-26T09:16:31.929Z,7.30
2022-11-26T09:17:33.545Z,7.30
2022-11-26T09:18:35.130Z,7.30
2022-11-26T09:19:36.866Z,7.30
2022-11-26T09:20:38.508Z,7.30
2022-11-26T09:21:40.170Z,7.30
2022-11-26T09:22:41.797Z,7.30
2022-11-26T09:23:43.438Z,7.30
2022-11-26T09:24:45.056Z,7.30
2022-11-26T09:25:49.580Z,7.30
2022-11-26T09:26:51.387Z,7.30
2022-11-26T09:27:52.955Z,7.40
2022-11-26T09:28:54.531Z,7.40
2022-11-26T09:29:56.862Z,7.40
2022-11-26T09:30:59.107Z,7.40
2022-11-26T09:32:22.532Z,7.40
2022-11-26T09:33:23.531Z,7.40
2022-11-26T09:34:25.357Z,7.50
2022-11-26T09:35:27.799Z,7.50
2022-11-26T09:36:30.231Z,7.50
2022-11-26T09:37:32.716Z,7.50
2022-11-26T09:38:35.021Z,7.50
2022-11-26T09:39:41.390Z,7.50
2022-11-26T09:41:03.353Z,7.50
2022-11-26T09:42:19.266Z,7.60
2022-11-26T09:43:31.499Z,7.60
2022-11-26T09:44:40.783Z,7.60
2022-11-26T09:45:49.853Z,7.60
2022-11-26T09:47:32.784Z,7.60
2022-11-26T09:48:35.075Z,7.70
2022-11-26T09:49:52.496Z,7.70
2022-11-26T09:51:04.276Z,7.70
2022-11-26T09:52:09.775Z,7.70
2022-11-26T09:53:26.451Z,7.80
2022-11-26T09:54:30.157Z,7.80
2022-11-26T09:55:35.239Z,7.80
2022-11-26T09:56:38.093Z,7.80
2022-11-26T09:57:48.241Z,7.80
2022-11-26T09:59:02.725Z,7.80
2022-11-26T10:00:06.956Z,7.80
2022-11-26T10:01:17.280Z,7.80
2022-11-26T10:02:19.280Z,7.90
2022-11-26T10:03:24.056Z,7.90
2022-11-26T10:04:31.152Z,7.90
2022-11-26T10:05:47.902Z,7.90
2022-11-26T10:07:15.547Z,8.00
2022-11-26T10:08:48.489Z,8.00
2022-11-26T10:10:00.312Z,8.00
2022-11-26T10:11:20.837Z,8.00
2022-11-26T10:12:31.035Z,8.00
2022-11-26T10:13:46.215Z,8.10
2022-11-26T10:15:06.873Z,8.10
2022-11-26T10:16:25.446Z,8.10
2022-11-26T10:17:35.828Z,8.20
2022-11-26T10:18:45.976Z,8.20
2022-11-26T10:20:28.461Z,8.20
2022-11-26T10:21:58.189Z,8.20
2022-11-26T10:23:21.560Z,8.20
2022-11-26T10:24:33.174Z,8.20
2022-11-26T10:25:42.441Z,8.20
2022-11-26T10:26:44.715Z,8.30
2022-11-26T10:27:49.324Z,8.30
2022-11-26T10:28:56.784Z,8.40
2022-11-26T10:30:09.583Z,8.30
2022-11-26T10:31:27.165Z,8.30
2022-11-26T10:32:38.820Z,8.30
2022-11-26T10:33:54.341Z,8.30
2022-11-26T10:34:57.759Z,8.40
2022-11-26T10:35:59.407Z,8.40
2022-11-26T10:37:01.210Z,8.40
2022-11-26T10:38:02.888Z,8.40
2022-11-26T10:39:07.177Z,8.40
2022-11-26T10:40:26.429Z,8.40
2022-11-26T10:41:35.174Z,8.40
2022-11-26T10:42:42.337Z,8.50
2022-11-26T10:43:44.003Z,8.50
2022-11-26T10:44:46.847Z,8.50
2022-11-26T10:45:54.071Z,8.50
2022-11-26T10:46:57.116Z,8.50
2022-11-26T10:48:23.821Z,8.50
2022-11-26T10:49:29.652Z,8.60
2022-11-26T10:50:50.258Z,8.50
2022-11-26T10:51:56.008Z,8.50
2022-11-26T10:53:05.802Z,8.50
2022-11-26T10:54:27.298Z,8.60
2022-11-26T10:55:39.411Z,8.60
2022-11-26T10:56:46.812Z,8.60
2022-11-26T10:58:16.026Z,8.60
2022-11-26T10:59:19.327Z,8.50
2022-11-26T11:00:39.219Z,8.50
2022-11-26T11:01:41.976Z,8.50
2022-11-26T11:02:48.678Z,8.50
2022-11-26T11:04:13.082Z,8.60
2022-11-26T11:05:20.584Z,8.60
2022-11-26T11:06:28.096Z,8.60
2022-11-26T11:07:36.932Z,8.60
2022-11-26T11:08:38.698Z,8.60
2022-11-26T11:09:40.293Z,8.70
2022-11-26T11:10:55.575Z,8.70
2022-11-26T11:12:11.968Z,8.70
2022-11-26T11:13:13.666Z,8.70
2022-11-26T11:14:29.004Z,8.70
2022-11-26T11:15:33.887Z,8.70
2022-11-26T11:16:43.309Z,8.70
2022-11-26T11:17:46.822Z,8.70
2022-11-26T11:19:02.623Z,8.70
2022-11-26T11:20:16.434Z,8.70
2022-11-26T11:21:19.647Z,8.70
2022-11-26T11:22:22.283Z,8.70
2022-11-26T11:23:40.372Z,8.70
2022-11-26T11:24:48.541Z,8.70
2022-11-26T11:26:02.669Z,8.70
2022-11-26T11:27:04.300Z,8.70
2022-11-26T11:28:12.948Z,8.70
2022-11-26T11:29:29.510Z,8.80
2022-11-26T11:30:34.573Z,8.80
2022-11-26T11:31:47.065Z,8.80
2022-11-26T11:32:48.948Z,8.80
2022-11-26T11:33:51.716Z,8.80
2022-11-26T11:34:53.554Z,8.80
2022-11-26T11:36:01.870Z,8.80
2022-11-26T11:37:15.650Z,8.80
2022-11-26T11:38:23.723Z,8.90
2022-11-26T11:39:33.574Z,8.90
2022-11-26T11:40:41.657Z,9.00
2022-11-26T11:41:47.030Z,9.00
2022-11-26T11:42:52.721Z,9.10
2022-11-26T11:44:16.539Z,9.20
2022-11-26T11:45:41.110Z,9.20
2022-11-26T11:47:01.732Z,9.20
2022-11-26T11:48:29.352Z,9.30
2022-11-26T11:49:30.922Z,9.30
2022-11-26T11:50:49.917Z,9.30
2022-11-26T11:52:10.082Z,9.20
2022-11-26T11:53:20.155Z,9.20
2022-11-26T11:54:29.207Z,9.20
2022-11-26T11:56:02.211Z,9.20
2022-11-26T11:57:16.998Z,9.30
2022-11-26T11:58:31.611Z,9.40
2022-11-26T12:00:10.664Z,9.40
2022-11-26T12:01:47.384Z,9.60
2022-11-26T12:03:10.656Z,10.00
2022-11-26T12:04:26.460Z,10.30
2022-11-26T12:05:52.784Z,11.00
2022-11-26T12:07:31.587Z,11.60
2022-11-26T12:08:39.090Z,12.20
2022-11-26T12:09:52.708Z,12.50
2022-11-26T12:11:38.747Z,12.80
2022-11-26T12:12:48.232Z,13.00
2022-11-26T12:14:02.285Z,13.50
2022-11-26T12:15:10.680Z,13.90
2022-11-26T12:16:16.288Z,14.30
2022-11-26T12:17:33.446Z,14.40
2022-11-26T12:19:02.841Z,14.40
2022-11-26T12:20:30.354Z,14.60
2022-11-26T12:21:41.695Z,14.90
2022-11-26T12:22:58.949Z,15.10
2022-11-26T12:24:06.683Z,15.20
2022-11-26T12:25:35.354Z,15.20
2022-11-26T12:26:49.824Z,15.10
2022-11-26T12:28:06.782Z,15.00
2022-11-26T12:29:29.032Z,14.90
2022-11-26T12:30:50.444Z,14.60
2022-11-26T12:31:58.358Z,14.40
2022-11-26T12:33:06.959Z,14.30
2022-11-26T12:34:22.275Z,14.20
2022-11-26T12:35:35.435Z,14.20
2022-11-26T12:36:43.270Z,14.20
2022-11-26T12:37:49.321Z,14.30
2022-11-26T12:38:58.874Z,14.10
2022-11-26T12:40:31.542Z,13.70
2022-11-26T12:41:59.290Z,13.50
2022-11-26T12:43:16.584Z,13.30
2022-11-26T12:44:42.642Z,13.10
2022-11-26T12:45:53.525Z,13.00
2022-11-26T12:47:31.694Z,12.90
2022-11-26T12:49:50.582Z,12.80
2022-11-26T12:50:56.932Z,12.80
2022-11-26T12:52:05.068Z,12.80
2022-11-26T12:53:20.138Z,12.70
2022-11-26T12:54:43.768Z,12.10
2022-11-26T12:56:01.276Z,11.60
2022-11-26T12:57:17.865Z,11.50
2022-11-26T12:58:29.075Z,11.40
2022-11-26T12:59:45.449Z,11.20
2022-11-26T13:00:49.605Z,11.00
2022-11-26T13:01:51.478Z,10.90
2022-11-26T13:02:53.738Z,10.70
2022-11-26T13:04:14.757Z,10.70
2022-11-26T13:05:29.259Z,10.70
2022-11-26T13:06:33.552Z,10.70
2022-11-26T13:07:50.849Z,10.70
2022-11-26T13:09:04.438Z,10.60
2022-11-26T13:10:16.013Z,10.60
2022-11-26T13:11:43.193Z,10.60
2022-11-26T13:12:59.871Z,10.60
2022-11-26T13:14:01.484Z,10.50
2022-11-26T13:15:29.584Z,10.50
2022-11-26T13:16:45.981Z,10.50
2022-11-26T13:17:49.292Z,10.50
2022-11-26T13:19:00.643Z,10.40
2022-11-26T13:20:31.835Z,10.40
2022-11-26T13:22:11.712Z,10.40
2022-11-26T13:23:25.782Z,10.40
2022-11-26T13:24:43.992Z,10.50
2022-11-26T13:25:58.793Z,10.50
2022-11-26T13:27:15.432Z,10.50
2022-11-26T13:28:29.208Z,10.50
2022-11-26T13:29:55.487Z,10.40
2022-11-26T13:31:23.424Z,10.40
2022-11-26T13:32:39.900Z,10.30
2022-11-26T13:33:41.450Z,10.20
2022-11-26T13:35:10.801Z,10.20
2022-11-26T13:36:25.242Z,10.20
2022-11-26T13:37:44.911Z,10.10
2022-11-26T13:39:03.203Z,10.10
2022-11-26T13:40:22.884Z,10.00
2022-11-26T13:41:46.879Z,10.00
2022-11-26T13:43:06.250Z,10.00
2022-11-26T13:44:23.162Z,9.90
2022-11-26T13:45:58.489Z,9.90
2022-11-26T13:47:03.494Z,9.90
2022-11-26T13:48:09.448Z,9.80
2022-11-26T13:49:33.189Z,9.80
2022-11-26T13:51:09.407Z,9.70
2022-11-26T13:52:23.691Z,9.70
2022-11-26T13:53:33.551Z,9.60
2022-11-26T13:54:47.737Z,9.70
2022-11-26T13:55:57.789Z,9.70
2022-11-26T13:57:08.713Z,9.70
2022-11-26T13:58:20.959Z,9.60
2022-11-26T13:59:38.997Z,9.70
2022-11-26T14:00:40.735Z,9.70
2022-11-26T14:01:42.989Z,9.70
2022-11-26T14:02:46.692Z,9.70
2022-11-26T14:03:49.420Z,9.70
2022-11-26T14:04:52.589Z,9.70
2022-11-26T14:05:57.221Z,9.70
2022-11-26T14:07:04.560Z,9.70
2022-11-26T14:08:35.697Z,9.70
2022-11-26T14:09:46.122Z,9.60
2022-11-26T14:10:47.853Z,9.60
2022-11-26T14:11:54.260Z,9.60
2022-11-26T14:13:02.183Z,9.60
2022-11-26T14:14:25.741Z,9.60
2022-11-26T14:15:42.651Z,9.60
2022-11-26T14:17:02.654Z,9.60
2022-11-26T14:18:05.037Z,9.60
2022-11-26T14:19:06.678Z,9.50
2022-11-26T14:20:09.053Z,9.50
2022-11-26T14:21:11.490Z,9.50
2022-11-26T14:22:22.251Z,9.50
2022-11-26T14:23:42.515Z,9.50
2022-11-26T14:24:49.535Z,9.40
2022-11-26T14:25:51.384Z,9.40
2022-11-26T14:26:53.455Z,9.40
2022-11-26T14:27:55.838Z,9.40
2022-11-26T14:29:06.879Z,9.30
2022-11-26T14:30:08.519Z,9.40
2022-11-26T14:31:25.938Z,9.40
2022-11-26T14:32:32.512Z,9.30
2022-11-26T14:33:34.625Z,9.30
2022-11-26T14:34:42.373Z,9.30
2022-11-26T14:35:54.736Z,9.30
2022-11-26T14:36:58.627Z,9.20
2022-11-26T14:38:02.489Z,9.20
2022-11-26T14:39:14.549Z,9.10
2022-11-26T14:40:36.763Z,9.10
2022-11-26T14:41:40.876Z,9.10
2022-11-26T14:42:42.442Z,9.10